Nearby METAR Reports

 

KEQY - Monroe, North Carolina, USA
Distance from station: S 11mi, 18km
Updated: Fri, 10/24/2014 8:53am EDT
Clear
Clear
 Wind from calm
Wind: Calm
Temperature: 48°F , 9°C
Dew Point: 43°F , 6°C
Humidity: 82%
Barometer: 30.07 inHg , 1018.3 hPa
Clouds: Clear
Visibility: 10 miles , 16 km
2014/10/24 12:53 KEQY 241253Z AUTO 00000KT 10SM CLR 09/06 A3007 RMK AO2 SLP196 T00940056
KJQF - Concord Reg Arpt, North Carolina, USA
Distance from station: NNW 16mi, 25km
Updated: Fri, 10/24/2014 8:52am EDT
Clear
Clear
 Wind from calm
Wind: Calm
Temperature: 46°F , 8°C
Dew Point: 43°F , 6°C
Humidity: 87%
Barometer: 30.12 inHg , 1020 hPa
Clouds: Clear
Visibility: 10 miles , 16 km
2014/10/24 12:52 KJQF 241252Z 00000KT 10SM CLR 08/06 A3012
 
KCLT - Charlotte, North Carolina, USA
Distance from station: W 20mi, 33km
Updated: Fri, 10/24/2014 8:52am EDT
Mostly cloudy
Mostly cloudy
 Wind from calm
Wind: Calm
Temperature: 46°F , 8°C
Dew Point: 43°F , 6°C
Humidity: 87%
Barometer: 30.08 inHg , 1018.6 hPa
Clouds: Mostly cloudy
Visibility: 10 miles , 16 km
Cloud details: Mostly cloudy 16000 ft
Mostly cloudy 25000 ft
2014/10/24 12:52 KCLT 241252Z 00000KT 10SM BKN160 BKN250 08/06 A3008 RMK AO2 SLP186 T00830056
KUZA - Rock Hill, South Carolina, USA
Distance from station: WSW 29mi, 47km
Updated: Fri, 10/24/2014 8:54am EDT
Clear
Clear
 Wind from calm
Wind: Calm
Temperature: 48°F , 9°C
Dew Point: 46°F , 8°C
Humidity: 94%
Barometer: 30.08 inHg , 1018.6 hPa
Clouds: Clear
Visibility: 8 miles , 13 km
2014/10/24 12:54 KUZA 241254Z AUTO 00000KT 8SM CLR 09/08 A3008 RMK AO2 SLP185 T00940078
 
KVUJ - Albemarle Stanly, North Carolina, USA
Distance from station: NE 30mi, 48km
Updated: Fri, 10/24/2014 9:15am EDT
Clear
Clear
 Wind from N
Wind: N 3 mph , 6 km/h
Temperature: 52°F , 11°C
Dew Point: 46°F , 8°C
Humidity: 82%
Barometer: 30.13 inHg , 1020.3 hPa
Clouds: Clear
Visibility: 10 miles , 16 km
2014/10/24 13:15 KVUJ 241315Z AUTO 36003KT 10SM CLR 11/08 A3013 RMK AO2 T01050078
KAFP - Wadesboro/Anson, North Carolina, USA
Distance from station: ESE 31mi, 50km
Updated: Fri, 10/24/2014 9:15am EDT
Clear
Clear
 Wind from calm
Wind: Calm
Temperature: 52°F , 11°C
Dew Point: 43°F , 6°C
Humidity: 72%
Barometer: 30.09 inHg , 1019 hPa
Clouds: Clear
Visibility: 10 miles , 16 km
2014/10/24 13:15 KAFP 241315Z AUTO 00000KT 10SM CLR 11/06 A3009 RMK AO2 T01060063
 
KAKH - Gastonia, North Carolina, USA
Distance from station: W 31mi, 51km
Updated: Fri, 10/24/2014 8:54am EDT
Clear
Clear
 Wind from NNE
Wind: NNE 3 mph , 6 km/h
Temperature: 48°F , 9°C
Dew Point: 43°F , 6°C
Humidity: 82%
Barometer: 30.07 inHg , 1018.3 hPa
Clouds: Clear
Visibility: 10 miles , 16 km
2014/10/24 12:54 KAKH 241254Z AUTO 03003KT 10SM CLR 09/06 A3007 RMK AO2 SLP186 T00890056
KRUQ - Salisbury Rowan, North Carolina, USA
Distance from station: N 33mi, 53km
Updated: Fri, 10/24/2014 9:15am EDT
Clear
Clear
 Wind from calm
Wind: Calm
Temperature: 45°F , 7°C
Dew Point: 41°F , 5°C
Humidity: 87%
Barometer: 30.09 inHg , 1019 hPa
Clouds: Clear
Visibility: 10 miles , 16 km
2014/10/24 13:15 KRUQ 241315Z AUTO 00000KT 10SM CLR 07/05 A3009 RMK AO2 T00730049
 
KLKR - Lancaster, South Carolina, USA
Distance from station: SSW 35mi, 57km
Updated: Fri, 10/24/2014 9:15am EDT
Rain, Clear
Rain, Clear
 Wind from calm
Wind: Calm
Temperature: 46°F , 8°C
Dew Point: 46°F , 8°C
Humidity: 100%
Barometer: 30.09 inHg , 1019 hPa
Summary: Rain
Clouds: Clear
Visibility: 9 miles , 14 km
2014/10/24 13:15 KLKR 241315Z AUTO 00000KT 9SM RA CLR 08/08 A3009 RMK AO2
KIPJ - Lincolnton, North Carolina, USA
Distance from station: WNW 39mi, 62km
Updated: Fri, 10/24/2014 9:15am EDT
Clear
Clear
 Wind from calm
Wind: Calm
Temperature: 45°F , 7°C
Dew Point: 43°F , 6°C
Humidity: 93%
Barometer: 30.09 inHg , 1019 hPa
Clouds: Clear
Visibility: 10 miles , 16 km
2014/10/24 13:15 KIPJ 241315Z AUTO 00000KT 10SM CLR 07/06 A3009 RMK AO2 T00730057
 
KDCM - Chester Catawba, South Carolina, USA
Distance from station: SW 44mi, 71km
Updated: Fri, 10/03/2014 7:35pm EDT
NOT Current
Partly cloudy
Partly cloudy
 Wind from calm
Wind: Calm
Temperature: 73°F , 23°C
Dew Point: 70°F , 21°C
Humidity: 89%
Barometer: 29.88 inHg , 1011.9 hPa
Clouds: Partly cloudy
Visibility: 10 miles , 16 km
Cloud details: Partly cloudy 1000 ft
Partly cloudy 1400 ft
2014/10/03 23:35 KDCM 032335Z AUTO 00000KT 10SM SCT010 SCT014 23/21 A2988 RMK AO2 LTG DSNT SE
KSVH - Statesville, North Carolina, USA
Distance from station: NNW 44mi, 71km
Updated: Fri, 10/24/2014 9:15am EDT
Clear
Clear
 Wind from calm
Wind: Calm
Temperature: 48°F , 9°C
Dew Point: 43°F , 6°C
Humidity: 82%
Barometer: 30.07 inHg , 1018.3 hPa
Clouds: Clear
Visibility: 10 miles , 16 km
2014/10/24 13:15 KSVH 241315Z AUTO 00000KT 10SM CLR 09/06 A3007 RMK AO2 T00850058
 
KEXX - Davidson Cty Ap, North Carolina, USA
Distance from station: NNE 45mi, 72km
Updated: Fri, 10/24/2014 9:15am EDT
Clear
Clear
 Wind from calm
Wind: Calm
Temperature: 46°F , 8°C
Dew Point: 41°F , 5°C
Humidity: 82%
Barometer: 30.08 inHg , 1018.6 hPa
Clouds: Clear
Visibility: 10 miles , 16 km
2014/10/24 13:15 KEXX 241315Z AUTO 00000KT 10SM CLR 08/05 A3008 RMK AO2 T00840053
KCQW - Cheraw, South Carolina, USA
Distance from station: SE 49mi, 78km
Updated: Fri, 10/24/2014 9:15am EDT
Mist, Clear
Mist, Clear
 Wind from calm
Wind: Calm
Temperature: 46°F , 8°C
Dew Point: 45°F , 7°C
Humidity: 93%
Barometer: 30.08 inHg , 1018.6 hPa
Summary: Mist
Clouds: Clear
Visibility: 5 miles , 8 km
2014/10/24 13:15 KCQW 241315Z AUTO 00000KT 5SM BR CLR 08/07 A3008 RMK AO2